createdAt,value
2019-03-04T00:00:46.677Z,10.40
2019-03-04T00:03:18.212Z,10.40
2019-03-04T00:05:49.100Z,10.32
2019-03-04T00:08:18.041Z,10.28
2019-03-04T00:10:48.857Z,10.30
2019-03-04T00:13:19.829Z,10.27
2019-03-04T00:15:50.032Z,10.30
2019-03-04T00:18:20.942Z,10.30
2019-03-04T00:20:50.303Z,10.27
2019-03-04T00:23:19.420Z,10.34
2019-03-04T00:25:51.929Z,10.32
2019-03-04T00:28:25.822Z,10.27
2019-03-04T00:30:54.518Z,10.32
2019-03-04T00:33:26.717Z,10.40
2019-03-04T00:35:55.765Z,10.47
2019-03-04T00:38:26.473Z,10.57
2019-03-04T00:40:55.294Z,10.64
2019-03-04T00:43:26.619Z,10.60
2019-03-04T00:45:55.837Z,10.69
2019-03-04T00:48:28.411Z,10.68
2019-03-04T00:50:57.424Z,10.74
2019-03-04T00:53:26.383Z,10.77
2019-03-04T00:55:56.689Z,10.81
2019-03-04T00:58:32.143Z,10.78
2019-03-04T01:01:01.433Z,10.83
2019-03-04T01:03:31.657Z,10.84
2019-03-04T01:06:03.469Z,10.80
2019-03-04T01:08:34.868Z,10.78
2019-03-04T01:11:06.402Z,10.88
2019-03-04T01:13:37.144Z,10.87
2019-03-04T01:16:07.942Z,10.95
2019-03-04T01:18:37.034Z,10.84
2019-03-04T01:21:07.012Z,10.83
2019-03-04T01:23:40.219Z,10.91
2019-03-04T01:26:14.329Z,10.92
2019-03-04T01:28:45.758Z,10.90
2019-03-04T01:31:14.470Z,10.95
2019-03-04T01:33:45.431Z,10.98
2019-03-04T01:36:16.757Z,11.07
2019-03-04T01:38:47.443Z,11.04
2019-03-04T01:41:19.489Z,11.05
2019-03-04T01:43:48.433Z,11.07
2019-03-04T01:46:20.523Z,11.07
2019-03-04T01:48:49.099Z,10.94
2019-03-04T01:51:18.137Z,10.96
2019-03-04T01:53:49.116Z,10.89
2019-03-04T01:56:18.560Z,10.93
2019-03-04T01:58:51.726Z,11.03
2019-03-04T02:01:20.400Z,10.97
2019-03-04T02:03:49.465Z,11.00
2019-03-04T02:06:18.842Z,11.07
2019-03-04T02:08:48.008Z,11.04
2019-03-04T02:11:21.232Z,11.05
2019-03-04T02:13:51.822Z,11.04
2019-03-04T02:16:22.457Z,11.11
2019-03-04T02:18:52.845Z,11.18
2019-03-04T02:21:23.188Z,11.09
2019-03-04T02:23:58.303Z,11.01
2019-03-04T02:26:31.275Z,11.15
2019-03-04T02:29:00.344Z,11.20
2019-03-04T02:31:29.351Z,11.20
2019-03-04T02:33:59.987Z,11.32
2019-03-04T02:36:33.641Z,11.27
2019-03-04T02:39:01.640Z,11.26
2019-03-04T02:41:33.009Z,11.24
2019-03-04T02:44:04.221Z,11.24
2019-03-04T02:46:33.400Z,11.28
2019-03-04T02:49:05.284Z,11.26
2019-03-04T02:51:34.430Z,11.24
2019-03-04T02:54:05.237Z,11.29
2019-03-04T02:56:34.130Z,11.33
2019-03-04T02:59:04.761Z,11.25
2019-03-04T03:01:39.062Z,11.23
2019-03-04T03:04:08.547Z,11.27
2019-03-04T03:06:37.658Z,11.23
2019-03-04T03:09:11.355Z,11.18
2019-03-04T03:11:44.399Z,11.16
2019-03-04T03:14:13.220Z,11.22
2019-03-04T03:16:46.680Z,11.23
2019-03-04T03:19:17.592Z,11.24
2019-03-04T03:21:49.971Z,11.29
2019-03-04T03:24:20.330Z,11.32
2019-03-04T03:26:50.246Z,11.29
2019-03-04T03:29:22.417Z,11.30
2019-03-04T03:31:52.901Z,11.30
2019-03-04T03:34:23.628Z,11.37
2019-03-04T03:36:56.884Z,11.35
2019-03-04T03:39:29.128Z,11.33
2019-03-04T03:41:59.524Z,11.29
2019-03-04T03:44:28.307Z,11.35
2019-03-04T03:46:58.336Z,11.27
2019-03-04T03:49:27.386Z,11.21
2019-03-04T03:51:57.981Z,11.16
2019-03-04T03:54:31.779Z,11.23
2019-03-04T03:57:05.063Z,11.17
2019-03-04T03:59:38.503Z,11.18
2019-03-04T04:02:09.538Z,11.26
2019-03-04T04:04:38.467Z,11.16
2019-03-04T04:07:09.272Z,11.17
2019-03-04T04:09:39.202Z,11.11
2019-03-04T04:12:09.512Z,11.15
2019-03-04T04:14:39.100Z,11.17
2019-03-04T04:17:12.497Z,11.24
2019-03-04T04:19:41.744Z,11.25
2019-03-04T04:22:13.981Z,11.24
2019-03-04T04:24:45.382Z,11.27
2019-03-04T04:27:14.389Z,11.30
2019-03-04T04:29:45.424Z,11.25
2019-03-04T04:32:14.390Z,11.22
2019-03-04T04:34:43.229Z,11.24
2019-03-04T04:37:12.422Z,11.16
2019-03-04T04:39:41.572Z,11.15
2019-03-04T04:42:10.430Z,11.18
2019-03-04T04:44:42.849Z,11.23
2019-03-04T04:47:16.027Z,11.14
2019-03-04T04:49:44.948Z,11.16
2019-03-04T04:52:17.376Z,11.11
2019-03-04T04:54:47.861Z,10.99
2019-03-04T04:57:20.055Z,10.99
2019-03-04T04:59:54.085Z,11.02
2019-03-04T05:02:23.338Z,10.99
2019-03-04T05:04:52.144Z,11.01
2019-03-04T05:07:20.986Z,11.06
2019-03-04T05:09:50.119Z,11.12
2019-03-04T05:12:19.415Z,11.14
2019-03-04T05:14:51.852Z,11.19
2019-03-04T05:17:24.399Z,11.16
2019-03-04T05:19:55.996Z,11.24
2019-03-04T05:22:29.756Z,11.26
2019-03-04T05:24:58.557Z,11.43
2019-03-04T05:27:27.881Z,11.43
2019-03-04T05:29:59.005Z,11.56
2019-03-04T05:32:27.686Z,11.59
2019-03-04T05:34:56.846Z,11.58
2019-03-04T05:37:27.419Z,11.48
2019-03-04T05:39:56.301Z,11.57
2019-03-04T05:42:26.885Z,11.58
2019-03-04T05:44:56.995Z,11.65
2019-03-04T05:47:26.185Z,11.78
2019-03-04T05:49:58.050Z,11.85
2019-03-04T05:52:29.297Z,11.88
2019-03-04T05:54:59.518Z,11.95
2019-03-04T05:57:28.610Z,11.95
2019-03-04T05:59:59.143Z,12.02
2019-03-04T06:02:28.956Z,12.02
2019-03-04T06:04:59.940Z,11.99
2019-03-04T06:07:43.438Z,11.90
2019-03-04T06:10:13.605Z,11.87
2019-03-04T06:12:42.851Z,11.85
2019-03-04T06:15:15.325Z,11.94
2019-03-04T06:17:45.894Z,11.93
2019-03-04T06:20:15.889Z,12.00
2019-03-04T06:22:44.893Z,11.98
2019-03-04T06:25:15.920Z,11.89
2019-03-04T06:27:45.009Z,11.97
2019-03-04T06:30:19.312Z,12.03
2019-03-04T06:32:48.365Z,12.02
2019-03-04T06:35:17.740Z,11.99
2019-03-04T06:37:48.410Z,11.94
2019-03-04T06:40:19.334Z,11.91
2019-03-04T06:42:49.532Z,12.03
2019-03-04T06:45:18.618Z,12.10
2019-03-04T06:47:48.121Z,12.02
2019-03-04T06:50:47.669Z,12.12
2019-03-04T06:53:21.388Z,12.05
2019-03-04T06:56:01.207Z,12.08
2019-03-04T06:58:32.206Z,12.02
2019-03-04T07:01:13.621Z,12.06
2019-03-04T07:04:09.996Z,12.10
2019-03-04T07:06:42.770Z,12.17
2019-03-04T07:09:16.927Z,12.22
2019-03-04T07:11:54.216Z,12.25
2019-03-04T07:14:23.390Z,12.20
2019-03-04T07:16:52.989Z,12.17
2019-03-04T07:19:27.200Z,12.19
2019-03-04T07:21:58.255Z,12.30
2019-03-04T07:24:29.002Z,12.29
2019-03-04T07:26:57.962Z,12.31
2019-03-04T07:29:28.610Z,12.35
2019-03-04T07:31:59.584Z,12.28
2019-03-04T07:34:33.934Z,12.38
2019-03-04T07:37:02.884Z,12.44
2019-03-04T07:39:36.413Z,12.45
2019-03-04T07:42:05.746Z,12.45
2019-03-04T07:44:35.090Z,12.44
2019-03-04T07:47:04.235Z,12.44
2019-03-04T07:49:36.186Z,12.50
2019-03-04T07:52:06.965Z,12.49
2019-03-04T07:54:37.890Z,12.52
2019-03-04T07:57:06.910Z,12.54
2019-03-04T07:59:36.741Z,12.55
2019-03-04T08:02:10.777Z,12.60
2019-03-04T08:28:00.821Z,8.51
2019-03-04T08:30:29.816Z,8.31
2019-03-04T08:33:01.922Z,8.16
2019-03-04T08:35:34.106Z,8.02
2019-03-04T08:38:03.144Z,7.73
2019-03-04T08:40:36.798Z,7.55
2019-03-04T08:43:04.932Z,7.59
2019-03-04T08:45:34.180Z,7.64
2019-03-04T08:48:02.899Z,7.65
2019-03-04T08:50:34.820Z,7.81
2019-03-04T08:53:08.401Z,7.81
2019-03-04T08:55:41.589Z,7.92
2019-03-04T08:58:10.322Z,8.15
2019-03-04T09:00:43.053Z,8.19
2019-03-04T09:03:11.781Z,8.25
2019-03-04T09:05:42.434Z,8.32
2019-03-04T09:08:11.187Z,8.42
2019-03-04T09:10:42.116Z,8.48
2019-03-04T09:13:15.066Z,8.49
2019-03-04T09:15:46.759Z,8.56
2019-03-04T09:18:18.668Z,8.75
2019-03-04T09:20:47.584Z,8.79
2019-03-04T09:23:20.281Z,8.80
2019-03-04T09:25:57.562Z,8.88
2019-03-04T09:28:27.801Z,8.95
2019-03-04T09:30:58.063Z,8.95
2019-03-04T09:33:26.616Z,8.98
2019-03-04T09:35:57.140Z,9.01
2019-03-04T09:38:27.479Z,9.23
2019-03-04T09:40:58.037Z,9.57
2019-03-04T09:43:26.603Z,9.57
2019-03-04T09:45:55.551Z,9.61
2019-03-04T09:48:24.109Z,9.59
2019-03-04T09:50:54.375Z,9.71
2019-03-04T09:53:22.903Z,9.76
2019-03-04T09:55:51.495Z,9.79
2019-03-04T09:58:23.616Z,10.05
2019-03-04T10:01:16.776Z,10.16
2019-03-04T10:04:54.040Z,10.24
2019-03-04T10:08:01.953Z,10.32
2019-03-04T10:11:04.600Z,10.33
2019-03-04T10:14:10.493Z,10.35
2019-03-04T10:17:20.673Z,10.35
2019-03-04T10:20:38.904Z,10.56
2019-03-04T10:23:35.089Z,10.67
2019-03-04T10:26:23.011Z,10.74
2019-03-04T10:28:56.180Z,10.99
2019-03-04T10:31:48.725Z,11.12
2019-03-04T10:34:41.933Z,11.24
2019-03-04T10:37:43.664Z,11.34
2019-03-04T10:40:57.938Z,11.57
2019-03-04T10:43:58.635Z,11.52
2019-03-04T10:46:51.438Z,11.44
2019-03-04T10:49:20.263Z,11.32
2019-03-04T10:51:49.573Z,11.35
2019-03-04T10:54:19.525Z,11.30
2019-03-04T10:56:50.452Z,11.25
2019-03-04T10:59:22.114Z,11.41
2019-03-04T11:01:52.838Z,11.42
2019-03-04T11:04:26.516Z,11.50
2019-03-04T11:06:58.106Z,11.69
2019-03-04T11:09:29.791Z,11.75
2019-03-04T11:11:58.379Z,11.61
2019-03-04T11:14:27.457Z,11.55
2019-03-04T11:16:56.404Z,11.48
2019-03-04T11:19:25.539Z,11.47
2019-03-04T11:21:56.204Z,11.49
2019-03-04T11:24:24.796Z,11.34
2019-03-04T11:26:54.170Z,11.17
2019-03-04T11:29:23.327Z,10.93
2019-03-04T11:31:51.903Z,10.84
2019-03-04T11:34:22.158Z,10.78
2019-03-04T11:36:54.174Z,10.73
2019-03-04T11:40:03.040Z,10.71
2019-03-04T11:42:31.790Z,10.69
2019-03-04T11:45:05.034Z,10.62
2019-03-04T11:47:35.465Z,10.53
2019-03-04T11:50:05.885Z,10.51
2019-03-04T11:52:34.467Z,10.47
2019-03-04T11:55:05.253Z,10.28
2019-03-04T11:57:34.502Z,10.24
2019-03-04T12:00:03.240Z,10.23
2019-03-04T12:02:38.828Z,10.37
2019-03-04T12:05:06.285Z,10.42
2019-03-04T12:07:37.966Z,10.57
2019-03-04T12:10:09.476Z,10.66
2019-03-04T12:13:06.976Z,10.73
2019-03-04T12:15:26.745Z,10.83
2019-03-04T12:17:57.118Z,10.91
2019-03-04T12:20:25.858Z,10.86
2019-03-04T12:23:26.661Z,10.81
2019-03-04T12:25:55.236Z,10.78
2019-03-04T12:28:24.395Z,10.85
2019-03-04T12:30:54.107Z,10.94
2019-03-04T12:33:26.146Z,11.01
2019-03-04T12:35:55.442Z,11.05
2019-03-04T12:38:25.785Z,11.03
2019-03-04T12:40:54.357Z,10.99
2019-03-04T12:43:24.811Z,11.03
2019-03-04T12:45:53.536Z,11.06
2019-03-04T12:48:23.819Z,11.00
2019-03-04T12:50:53.955Z,10.84
2019-03-04T12:53:22.518Z,10.78
2019-03-04T12:55:54.794Z,10.63
2019-03-04T12:58:23.379Z,10.40
2019-03-04T13:00:52.781Z,10.12
2019-03-04T13:03:23.027Z,9.84
2019-03-04T13:05:54.019Z,9.61
2019-03-04T13:08:22.583Z,9.52
2019-03-04T13:10:51.631Z,9.06
2019-03-04T13:13:20.757Z,9.06
2019-03-04T13:15:52.843Z,8.79
2019-03-04T13:18:24.943Z,8.32
2019-03-04T13:20:54.041Z,8.00
2019-03-04T13:23:24.773Z,7.53
2019-03-04T13:25:58.420Z,7.35
2019-03-04T13:28:26.386Z,7.27
2019-03-04T13:31:02.937Z,7.16
2019-03-04T13:33:31.515Z,7.17
2019-03-04T13:36:04.982Z,7.28
2019-03-04T13:38:34.067Z,7.32
2019-03-04T13:41:02.812Z,7.59
2019-03-04T13:43:33.806Z,7.69
2019-03-04T13:46:03.086Z,7.81
2019-03-04T13:48:32.232Z,8.02
2019-03-04T13:51:02.777Z,7.86
2019-03-04T13:53:31.367Z,7.83
2019-03-04T13:56:00.103Z,7.72
2019-03-04T13:58:30.791Z,7.70
2019-03-04T14:00:59.491Z,7.64
2019-03-04T14:03:30.062Z,7.57
2019-03-04T14:05:58.956Z,7.47
2019-03-04T14:08:27.556Z,7.48
2019-03-04T14:10:59.352Z,7.57
2019-03-04T14:13:29.854Z,7.81
2019-03-04T14:16:00.013Z,7.91
2019-03-04T14:18:29.102Z,8.02
2019-03-04T14:20:58.167Z,8.15
2019-03-04T14:23:27.397Z,8.19
2019-03-04T14:25:57.969Z,8.01
2019-03-04T14:28:28.396Z,7.88
2019-03-04T14:30:58.366Z,7.91
2019-03-04T14:33:27.332Z,7.95
2019-03-04T14:35:56.339Z,7.99
2019-03-04T14:38:27.956Z,7.96
2019-03-04T14:40:56.506Z,7.92
2019-03-04T14:43:25.458Z,8.11
2019-03-04T14:45:55.965Z,8.19
2019-03-04T14:48:26.416Z,8.18
2019-03-04T14:50:55.319Z,8.16
2019-03-04T14:53:24.061Z,8.21
2019-03-04T14:55:52.963Z,8.19
2019-03-04T14:58:21.693Z,8.07
2019-03-04T15:00:51.472Z,8.00
2019-03-04T15:03:23.821Z,7.93
2019-03-04T15:05:54.610Z,7.90
2019-03-04T15:08:27.675Z,7.86
2019-03-04T15:10:56.416Z,7.85
2019-03-04T15:13:28.670Z,7.92
2019-03-04T15:16:03.529Z,7.91
2019-03-04T15:18:31.112Z,7.74
2019-03-04T15:21:00.017Z,7.98
2019-03-04T15:23:29.111Z,8.04
2019-03-04T15:25:57.677Z,8.05
2019-03-04T15:28:26.732Z,8.06
2019-03-04T15:30:56.997Z,8.03
2019-03-04T15:33:25.543Z,8.02
2019-03-04T15:35:54.482Z,7.98
2019-03-04T15:38:24.634Z,7.96
2019-03-04T15:40:53.653Z,7.88
2019-03-04T15:43:22.249Z,7.73
2019-03-04T15:45:51.877Z,7.67
2019-03-04T15:48:21.980Z,7.65
2019-03-04T15:50:55.628Z,7.66
2019-03-04T15:53:24.649Z,7.75
2019-03-04T15:55:53.556Z,7.75
2019-03-04T15:58:22.562Z,7.81
2019-03-04T16:00:55.095Z,7.81
2019-03-04T16:03:29.329Z,7.87
2019-03-04T16:05:58.105Z,7.87
2019-03-04T16:08:26.661Z,7.89
2019-03-04T16:10:55.551Z,7.90
2019-03-04T16:13:26.395Z,7.89
2019-03-04T16:16:14.283Z,7.93
2019-03-04T16:18:43.224Z,7.93
2019-03-04T16:21:13.946Z,7.94
2019-03-04T16:23:45.878Z,7.94
2019-03-04T16:26:15.431Z,7.94
2019-03-04T16:28:47.788Z,7.91
2019-03-04T16:31:16.707Z,7.88
2019-03-04T16:33:47.587Z,7.90
2019-03-04T16:36:19.895Z,7.86
2019-03-04T16:38:48.797Z,7.85
2019-03-04T16:41:17.895Z,7.84
2019-03-04T16:43:49.554Z,7.86
2019-03-04T16:46:18.298Z,7.85
2019-03-04T16:48:51.014Z,7.83
2019-03-04T16:51:21.831Z,7.81
2019-03-04T16:53:56.309Z,7.86
2019-03-04T16:56:31.526Z,7.87
2019-03-04T16:59:03.861Z,7.83
2019-03-04T17:01:34.860Z,7.87
2019-03-04T17:04:03.725Z,7.88
2019-03-04T17:06:34.825Z,7.84
2019-03-04T17:09:09.722Z,7.88
2019-03-04T17:11:40.792Z,7.88
2019-03-04T17:14:10.257Z,7.86
2019-03-04T17:16:41.311Z,7.81
2019-03-04T17:19:10.503Z,7.77
2019-03-04T17:21:39.262Z,7.79
2019-03-04T17:24:11.468Z,7.77
2019-03-04T17:26:43.846Z,7.77
2019-03-04T17:29:13.039Z,7.67
2019-03-04T17:31:42.344Z,7.68
2019-03-04T17:34:11.202Z,7.68
2019-03-04T17:36:39.957Z,7.62
2019-03-04T17:39:09.119Z,7.59
2019-03-04T17:41:42.647Z,7.59
2019-03-04T17:44:11.335Z,7.53
2019-03-04T17:46:40.234Z,7.56
2019-03-04T17:49:09.053Z,7.58
2019-03-04T17:51:37.832Z,7.54
2019-03-04T17:54:06.798Z,7.53
2019-03-04T17:56:35.809Z,7.45
2019-03-04T17:59:04.592Z,7.34
2019-03-04T18:01:33.420Z,7.32
2019-03-04T18:04:03.680Z,7.28
2019-03-04T18:06:32.593Z,7.27
2019-03-04T18:09:01.351Z,7.28
2019-03-04T18:11:30.544Z,7.22
2019-03-04T18:13:59.283Z,7.17
2019-03-04T18:16:28.347Z,7.22
2019-03-04T18:18:57.362Z,7.13
2019-03-04T18:21:30.859Z,7.23
2019-03-04T18:23:59.811Z,7.18
2019-03-04T18:26:33.459Z,7.12
2019-03-04T18:29:26.745Z,7.06
2019-03-04T18:32:30.017Z,7.05
2019-03-04T18:35:36.488Z,7.04
2019-03-04T18:38:43.564Z,7.03
2019-03-04T18:41:37.626Z,7.01
2019-03-04T18:44:46.412Z,6.98
2019-03-04T18:47:50.901Z,6.93
2019-03-04T18:50:23.030Z,6.97
2019-03-04T18:52:54.360Z,6.87
2019-03-04T18:55:24.703Z,6.87
2019-03-04T18:57:55.012Z,6.96
2019-03-04T19:00:25.956Z,6.93
2019-03-04T19:02:54.991Z,6.91
2019-03-04T19:05:23.687Z,6.88
2019-03-04T19:07:53.700Z,6.88
2019-03-04T19:10:22.594Z,6.96
2019-03-04T19:12:52.845Z,7.01
2019-03-04T19:15:21.905Z,6.87
2019-03-04T19:17:51.585Z,6.84
2019-03-04T19:20:20.955Z,6.94
2019-03-04T19:22:49.591Z,6.89
2019-03-04T19:25:18.681Z,6.80
2019-03-04T19:27:47.849Z,6.79
2019-03-04T19:30:16.526Z,6.85
2019-03-04T19:32:45.469Z,6.91
2019-03-04T19:35:14.335Z,6.96
2019-03-04T19:37:43.698Z,6.89
2019-03-04T19:40:12.773Z,6.82
2019-03-04T19:42:41.851Z,6.81
2019-03-04T19:45:12.202Z,6.69
2019-03-04T19:47:40.907Z,6.74
2019-03-04T19:50:10.135Z,6.69
2019-03-04T19:52:38.852Z,6.71
2019-03-04T19:55:08.904Z,6.65
2019-03-04T19:57:40.904Z,6.62
2019-03-04T20:00:12.042Z,6.62
2019-03-04T20:02:40.792Z,6.57
2019-03-04T20:05:09.865Z,6.56
2019-03-04T20:07:38.652Z,6.57
2019-03-04T20:10:11.504Z,6.48
2019-03-04T20:12:40.112Z,6.49
2019-03-04T20:15:11.538Z,6.37
2019-03-04T20:17:40.616Z,6.36
2019-03-04T20:20:10.537Z,6.46
2019-03-04T20:22:39.284Z,6.57
2019-03-04T20:25:09.423Z,6.52
2019-03-04T20:27:38.401Z,6.56
2019-03-04T20:30:08.461Z,6.63
2019-03-04T20:32:37.496Z,6.55
2019-03-04T20:35:07.521Z,6.65
2019-03-04T20:37:36.407Z,6.67
2019-03-04T20:40:05.367Z,6.58
2019-03-04T20:42:36.190Z,6.48
2019-03-04T20:45:05.861Z,6.56
2019-03-04T20:47:34.617Z,6.57
2019-03-04T20:50:04.153Z,6.53
2019-03-04T20:52:33.333Z,6.58
2019-03-04T20:55:02.336Z,6.59
2019-03-04T20:57:31.457Z,6.66
2019-03-04T21:00:01.459Z,6.63
2019-03-04T21:02:30.789Z,6.57
2019-03-04T21:05:01.180Z,6.63
2019-03-04T21:07:29.901Z,6.67
2019-03-04T21:09:59.269Z,6.74
2019-03-04T21:12:30.019Z,6.78
2019-03-04T21:14:59.020Z,6.80
2019-03-04T21:17:30.508Z,6.76
2019-03-04T21:19:59.392Z,6.74
2019-03-04T21:22:28.313Z,6.75
2019-03-04T21:24:59.090Z,6.75
2019-03-04T21:27:28.461Z,6.80
2019-03-04T21:30:47.783Z,6.81
2019-03-04T21:33:31.171Z,6.79
2019-03-04T21:36:29.874Z,6.78
2019-03-04T21:38:59.411Z,6.79
2019-03-04T21:41:52.838Z,6.88
2019-03-04T21:44:50.792Z,6.93
2019-03-04T21:47:24.041Z,6.93
2019-03-04T21:49:56.423Z,6.96
2019-03-04T21:53:04.471Z,6.99
2019-03-04T21:55:47.997Z,7.01
2019-03-04T21:58:16.834Z,7.01
2019-03-04T22:00:48.712Z,6.98
2019-03-04T22:03:20.644Z,7.01
2019-03-04T22:05:50.691Z,7.01
2019-03-04T22:08:21.126Z,7.02
2019-03-04T22:10:49.802Z,7.05
2019-03-04T22:13:24.824Z,7.11
2019-03-04T22:15:53.653Z,7.09
2019-03-04T22:18:25.637Z,7.01
2019-03-04T22:20:59.099Z,6.97
2019-03-04T22:23:27.889Z,6.94
2019-03-04T22:26:02.462Z,6.89
2019-03-04T22:28:31.603Z,6.80
2019-03-04T22:31:00.614Z,6.77
2019-03-04T22:33:31.405Z,6.72
2019-03-04T22:36:00.228Z,6.74
2019-03-04T22:38:29.489Z,6.68
2019-03-04T22:40:58.734Z,6.64
2019-03-04T22:43:27.563Z,6.66
2019-03-04T22:46:00.592Z,6.70
2019-03-04T22:48:29.844Z,6.65
2019-03-04T22:50:58.788Z,6.65
2019-03-04T22:53:27.694Z,6.63
2019-03-04T22:55:58.483Z,6.73
2019-03-04T22:58:28.847Z,6.78
2019-03-04T23:01:37.640Z,6.81
2019-03-04T23:04:20.407Z,6.79
2019-03-04T23:07:01.374Z,6.87
2019-03-04T23:09:32.269Z,6.89
2019-03-04T23:12:12.224Z,6.95
2019-03-04T23:14:41.091Z,6.93
2019-03-04T23:17:11.441Z,6.95
2019-03-04T23:19:40.200Z,6.91
2019-03-04T23:22:09.830Z,6.98
2019-03-04T23:24:38.548Z,7.01
2019-03-04T23:27:07.240Z,6.99
2019-03-04T23:29:37.790Z,7.00
2019-03-04T23:32:06.740Z,6.96
2019-03-04T23:34:35.429Z,6.85
2019-03-04T23:37:04.173Z,6.71
2019-03-04T23:39:35.623Z,6.58
2019-03-04T23:42:04.448Z,6.51
2019-03-04T23:44:33.286Z,6.51
2019-03-04T23:47:02.074Z,6.42
2019-03-04T23:49:31.356Z,6.40
2019-03-04T23:52:00.842Z,6.32
2019-03-04T23:54:29.715Z,6.28
2019-03-04T23:56:58.900Z,6.23
2019-03-04T23:59:30.984Z,6.16
